sensor_id;sensor_type;location;lat;lon;timestamp;P1;durP1;ratioP1;P2;durP2;ratioP2
18206;SDS011;9229;52.354;20.886;2023-04-03T00:00:00;3.47;;;1.80;;
18206;SDS011;9229;52.354;20.886;2023-04-03T00:05:06;1.65;;;1.63;;
18206;SDS011;9229;52.354;20.886;2023-04-03T00:10:12;2.25;;;2.15;;
18206;SDS011;9229;52.354;20.886;2023-04-03T00:15:17;1.95;;;1.73;;
18206;SDS011;9229;52.354;20.886;2023-04-03T00:20:19;2.63;;;2.03;;
18206;SDS011;9229;52.354;20.886;2023-04-03T00:25:21;1.98;;;1.85;;
18206;SDS011;9229;52.354;20.886;2023-04-03T00:30:27;2.10;;;1.80;;
18206;SDS011;9229;52.354;20.886;2023-04-03T00:35:33;1.67;;;1.58;;
18206;SDS011;9229;52.354;20.886;2023-04-03T00:40:39;3.95;;;2.55;;
18206;SDS011;9229;52.354;20.886;2023-04-03T00:45:46;1.67;;;1.65;;
18206;SDS011;9229;52.354;20.886;2023-04-03T00:50:59;1.80;;;1.70;;
18206;SDS011;9229;52.354;20.886;2023-04-03T00:56:02;1.95;;;1.80;;
18206;SDS011;9229;52.354;20.886;2023-04-03T01:01:12;3.65;;;2.00;;
18206;SDS011;9229;52.354;20.886;2023-04-03T01:06:23;2.25;;;1.98;;
18206;SDS011;9229;52.354;20.886;2023-04-03T01:11:32;1.95;;;1.88;;
18206;SDS011;9229;52.354;20.886;2023-04-03T01:16:37;2.08;;;1.75;;
18206;SDS011;9229;52.354;20.886;2023-04-03T01:21:50;2.45;;;1.67;;
18206;SDS011;9229;52.354;20.886;2023-04-03T01:27:05;2.22;;;1.95;;
18206;SDS011;9229;52.354;20.886;2023-04-03T01:32:10;1.63;;;1.60;;
18206;SDS011;9229;52.354;20.886;2023-04-03T01:37:13;1.77;;;1.73;;
18206;SDS011;9229;52.354;20.886;2023-04-03T01:42:17;2.00;;;1.90;;
18206;SDS011;9229;52.354;20.886;2023-04-03T01:47:24;4.25;;;2.20;;
18206;SDS011;9229;52.354;20.886;2023-04-03T01:52:30;1.80;;;1.70;;
18206;SDS011;9229;52.354;20.886;2023-04-03T01:57:32;5.78;;;2.10;;
18206;SDS011;9229;52.354;20.886;2023-04-03T02:02:35;3.13;;;2.25;;
18206;SDS011;9229;52.354;20.886;2023-04-03T02:07:37;1.98;;;1.80;;
18206;SDS011;9229;52.354;20.886;2023-04-03T02:12:43;6.07;;;2.05;;
18206;SDS011;9229;52.354;20.886;2023-04-03T02:17:47;1.77;;;1.70;;
18206;SDS011;9229;52.354;20.886;2023-04-03T02:22:49;1.80;;;1.70;;
18206;SDS011;9229;52.354;20.886;2023-04-03T02:27:53;3.03;;;2.08;;
18206;SDS011;9229;52.354;20.886;2023-04-03T02:32:59;2.53;;;2.33;;
18206;SDS011;9229;52.354;20.886;2023-04-03T02:38:01;2.20;;;2.10;;
18206;SDS011;9229;52.354;20.886;2023-04-03T02:43:03;4.03;;;1.80;;
18206;SDS011;9229;52.354;20.886;2023-04-03T02:48:09;1.63;;;1.63;;
18206;SDS011;9229;52.354;20.886;2023-04-03T02:53:12;2.15;;;1.90;;
18206;SDS011;9229;52.354;20.886;2023-04-03T02:58:14;1.55;;;1.52;;
18206;SDS011;9229;52.354;20.886;2023-04-03T03:03:18;4.40;;;2.00;;
18206;SDS011;9229;52.354;20.886;2023-04-03T03:08:21;2.38;;;1.77;;
18206;SDS011;9229;52.354;20.886;2023-04-03T03:13:23;2.30;;;2.10;;
18206;SDS011;9229;52.354;20.886;2023-04-03T03:18:32;2.03;;;1.80;;
18206;SDS011;9229;52.354;20.886;2023-04-03T03:23:40;2.67;;;1.63;;
18206;SDS011;9229;52.354;20.886;2023-04-03T03:28:45;2.20;;;2.10;;
18206;SDS011;9229;52.354;20.886;2023-04-03T03:33:56;1.80;;;1.70;;
18206;SDS011;9229;52.354;20.886;2023-04-03T03:39:04;1.65;;;1.60;;
18206;SDS011;9229;52.354;20.886;2023-04-03T03:44:10;2.33;;;2.25;;
18206;SDS011;9229;52.354;20.886;2023-04-03T03:49:15;2.00;;;1.90;;
18206;SDS011;9229;52.354;20.886;2023-04-03T03:54:18;2.65;;;2.00;;
18206;SDS011;9229;52.354;20.886;2023-04-03T03:59:21;2.15;;;1.95;;
18206;SDS011;9229;52.354;20.886;2023-04-03T04:04:25;3.38;;;1.70;;
18206;SDS011;9229;52.354;20.886;2023-04-03T04:09:29;1.70;;;1.70;;
18206;SDS011;9229;52.354;20.886;2023-04-03T04:14:31;2.22;;;2.00;;
18206;SDS011;9229;52.354;20.886;2023-04-03T04:19:35;2.10;;;2.00;;
18206;SDS011;9229;52.354;20.886;2023-04-03T04:24:40;2.50;;;2.40;;
18206;SDS011;9229;52.354;20.886;2023-04-03T04:29:44;4.57;;;1.95;;
18206;SDS011;9229;52.354;20.886;2023-04-03T04:34:49;2.65;;;2.03;;
18206;SDS011;9229;52.354;20.886;2023-04-03T04:39:51;2.20;;;2.08;;
18206;SDS011;9229;52.354;20.886;2023-04-03T04:51:02;1.95;;;1.88;;
18206;SDS011;9229;52.354;20.886;2023-04-03T04:56:10;2.20;;;2.10;;
18206;SDS011;9229;52.354;20.886;2023-04-03T05:01:18;2.03;;;1.92;;
18206;SDS011;9229;52.354;20.886;2023-04-03T05:06:42;4.95;;;2.00;;
18206;SDS011;9229;52.354;20.886;2023-04-03T05:11:49;3.13;;;2.10;;
18206;SDS011;9229;52.354;20.886;2023-04-03T05:16:55;2.00;;;1.90;;
18206;SDS011;9229;52.354;20.886;2023-04-03T05:22:06;2.17;;;2.08;;
18206;SDS011;9229;52.354;20.886;2023-04-03T05:27:09;6.97;;;2.10;;
18206;SDS011;9229;52.354;20.886;2023-04-03T05:32:21;3.63;;;2.88;;
18206;SDS011;9229;52.354;20.886;2023-04-03T05:37:53;2.08;;;1.92;;
18206;SDS011;9229;52.354;20.886;2023-04-03T05:43:15;3.42;;;1.80;;
18206;SDS011;9229;52.354;20.886;2023-04-03T05:48:51;2.00;;;1.90;;
18206;SDS011;9229;52.354;20.886;2023-04-03T05:54:03;5.60;;;2.13;;
18206;SDS011;9229;52.354;20.886;2023-04-03T05:59:10;1.67;;;1.67;;
18206;SDS011;9229;52.354;20.886;2023-04-03T06:04:13;2.20;;;2.10;;
18206;SDS011;9229;52.354;20.886;2023-04-03T06:09:21;3.03;;;1.92;;
18206;SDS011;9229;52.354;20.886;2023-04-03T06:14:26;4.15;;;2.13;;
18206;SDS011;9229;52.354;20.886;2023-04-03T06:19:43;4.03;;;2.13;;
18206;SDS011;9229;52.354;20.886;2023-04-03T06:24:52;5.72;;;2.10;;
18206;SDS011;9229;52.354;20.886;2023-04-03T06:29:54;2.15;;;1.98;;
18206;SDS011;9229;52.354;20.886;2023-04-03T06:34:56;4.30;;;2.40;;
18206;SDS011;9229;52.354;20.886;2023-04-03T06:40:02;2.30;;;2.17;;
18206;SDS011;9229;52.354;20.886;2023-04-03T06:45:06;10.68;;;2.08;;
18206;SDS011;9229;52.354;20.886;2023-04-03T06:50:10;2.22;;;2.20;;
18206;SDS011;9229;52.354;20.886;2023-04-03T06:55:16;1.98;;;1.98;;
18206;SDS011;9229;52.354;20.886;2023-04-03T07:00:18;2.35;;;2.15;;
18206;SDS011;9229;52.354;20.886;2023-04-03T07:05:20;2.08;;;1.88;;
18206;SDS011;9229;52.354;20.886;2023-04-03T07:10:25;2.60;;;1.92;;
18206;SDS011;9229;52.354;20.886;2023-04-03T07:15:27;2.08;;;1.90;;
18206;SDS011;9229;52.354;20.886;2023-04-03T07:20:42;2.20;;;2.10;;
18206;SDS011;9229;52.354;20.886;2023-04-03T07:25:46;2.05;;;1.90;;
18206;SDS011;9229;52.354;20.886;2023-04-03T07:30:50;2.22;;;2.00;;
18206;SDS011;9229;52.354;20.886;2023-04-03T07:35:53;2.25;;;2.05;;
18206;SDS011;9229;52.354;20.886;2023-04-03T07:40:57;3.83;;;2.15;;
18206;SDS011;9229;52.354;20.886;2023-04-03T07:45:59;4.70;;;2.17;;
18206;SDS011;9229;52.354;20.886;2023-04-03T07:51:01;2.50;;;1.80;;
18206;SDS011;9229;52.354;20.886;2023-04-03T07:56:06;2.15;;;1.80;;
18206;SDS011;9229;52.354;20.886;2023-04-03T08:01:09;2.25;;;2.13;;
18206;SDS011;9229;52.354;20.886;2023-04-03T08:06:12;6.18;;;2.10;;
18206;SDS011;9229;52.354;20.886;2023-04-03T08:11:17;2.40;;;2.00;;
18206;SDS011;9229;52.354;20.886;2023-04-03T08:16:21;6.15;;;2.13;;
18206;SDS011;9229;52.354;20.886;2023-04-03T08:21:28;2.15;;;2.00;;
18206;SDS011;9229;52.354;20.886;2023-04-03T08:26:32;2.40;;;2.20;;
18206;SDS011;9229;52.354;20.886;2023-04-03T08:31:34;2.50;;;1.80;;
18206;SDS011;9229;52.354;20.886;2023-04-03T08:36:36;3.42;;;2.10;;
18206;SDS011;9229;52.354;20.886;2023-04-03T08:41:40;2.35;;;1.92;;
18206;SDS011;9229;52.354;20.886;2023-04-03T08:46:49;6.10;;;2.35;;
18206;SDS011;9229;52.354;20.886;2023-04-03T08:51:59;2.08;;;1.98;;
18206;SDS011;9229;52.354;20.886;2023-04-03T08:57:07;2.28;;;1.75;;
18206;SDS011;9229;52.354;20.886;2023-04-03T09:02:17;1.88;;;1.70;;
18206;SDS011;9229;52.354;20.886;2023-04-03T09:07:30;3.67;;;1.90;;
18206;SDS011;9229;52.354;20.886;2023-04-03T09:12:39;3.42;;;2.10;;
18206;SDS011;9229;52.354;20.886;2023-04-03T09:17:52;1.95;;;1.70;;
18206;SDS011;9229;52.354;20.886;2023-04-03T09:23:09;3.80;;;2.28;;
18206;SDS011;9229;52.354;20.886;2023-04-03T09:28:19;2.00;;;1.75;;
18206;SDS011;9229;52.354;20.886;2023-04-03T09:33:21;1.88;;;1.77;;
18206;SDS011;9229;52.354;20.886;2023-04-03T09:38:24;2.63;;;1.90;;
18206;SDS011;9229;52.354;20.886;2023-04-03T09:43:29;2.75;;;1.80;;
18206;SDS011;9229;52.354;20.886;2023-04-03T09:48:32;1.77;;;1.70;;
18206;SDS011;9229;52.354;20.886;2023-04-03T09:53:35;3.78;;;2.05;;
18206;SDS011;9229;52.354;20.886;2023-04-03T10:04:21;3.60;;;1.80;;
18206;SDS011;9229;52.354;20.886;2023-04-03T10:09:27;1.80;;;1.70;;
18206;SDS011;9229;52.354;20.886;2023-04-03T10:14:32;1.60;;;1.60;;
18206;SDS011;9229;52.354;20.886;2023-04-03T10:19:36;2.17;;;1.95;;
18206;SDS011;9229;52.354;20.886;2023-04-03T10:24:56;1.65;;;1.65;;
18206;SDS011;9229;52.354;20.886;2023-04-03T10:30:08;1.67;;;1.58;;
18206;SDS011;9229;52.354;20.886;2023-04-03T10:35:25;1.75;;;1.65;;
18206;SDS011;9229;52.354;20.886;2023-04-03T10:40:39;1.63;;;1.50;;
18206;SDS011;9229;52.354;20.886;2023-04-03T10:45:57;7.10;;;1.85;;
18206;SDS011;9229;52.354;20.886;2023-04-03T10:51:06;1.60;;;1.50;;
18206;SDS011;9229;52.354;20.886;2023-04-03T10:56:18;1.85;;;1.63;;
18206;SDS011;9229;52.354;20.886;2023-04-03T11:01:26;1.38;;;1.38;;
18206;SDS011;9229;52.354;20.886;2023-04-03T11:06:32;2.78;;;1.60;;
18206;SDS011;9229;52.354;20.886;2023-04-03T11:11:38;1.77;;;1.67;;
18206;SDS011;9229;52.354;20.886;2023-04-03T11:16:45;1.70;;;1.60;;
18206;SDS011;9229;52.354;20.886;2023-04-03T11:21:51;12.85;;;1.85;;
18206;SDS011;9229;52.354;20.886;2023-04-03T11:26:58;1.60;;;1.50;;
18206;SDS011;9229;52.354;20.886;2023-04-03T11:32:20;2.50;;;1.70;;
18206;SDS011;9229;52.354;20.886;2023-04-03T11:37:36;3.25;;;2.40;;
18206;SDS011;9229;52.354;20.886;2023-04-03T11:42:42;2.17;;;1.75;;
18206;SDS011;9229;52.354;20.886;2023-04-03T11:47:50;3.13;;;1.70;;
18206;SDS011;9229;52.354;20.886;2023-04-03T11:53:03;1.60;;;1.50;;
18206;SDS011;9229;52.354;20.886;2023-04-03T11:58:34;1.65;;;1.58;;
18206;SDS011;9229;52.354;20.886;2023-04-03T12:09:22;1.52;;;1.42;;
18206;SDS011;9229;52.354;20.886;2023-04-03T12:14:41;3.03;;;1.60;;
18206;SDS011;9229;52.354;20.886;2023-04-03T12:20:00;5.28;;;1.48;;
18206;SDS011;9229;52.354;20.886;2023-04-03T12:25:40;1.77;;;1.60;;
18206;SDS011;9229;52.354;20.886;2023-04-03T12:30:50;2.38;;;1.63;;
18206;SDS011;9229;52.354;20.886;2023-04-03T12:35:57;1.77;;;1.63;;
18206;SDS011;9229;52.354;20.886;2023-04-03T12:41:18;5.97;;;1.63;;
18206;SDS011;9229;52.354;20.886;2023-04-03T12:46:26;1.50;;;1.50;;
18206;SDS011;9229;52.354;20.886;2023-04-03T12:51:37;5.90;;;2.13;;
18206;SDS011;9229;52.354;20.886;2023-04-03T12:56:41;4.32;;;1.40;;
18206;SDS011;9229;52.354;20.886;2023-04-03T13:01:45;4.47;;;2.10;;
18206;SDS011;9229;52.354;20.886;2023-04-03T13:06:58;2.90;;;1.48;;
18206;SDS011;9229;52.354;20.886;2023-04-03T13:12:02;1.50;;;1.50;;
18206;SDS011;9229;52.354;20.886;2023-04-03T13:17:14;1.73;;;1.63;;
18206;SDS011;9229;52.354;20.886;2023-04-03T13:22:25;5.78;;;1.83;;
18206;SDS011;9229;52.354;20.886;2023-04-03T13:27:32;6.72;;;1.80;;
18206;SDS011;9229;52.354;20.886;2023-04-03T13:32:35;1.80;;;1.40;;
18206;SDS011;9229;52.354;20.886;2023-04-03T13:37:39;3.35;;;1.80;;
18206;SDS011;9229;52.354;20.886;2023-04-03T13:43:01;1.70;;;1.60;;
18206;SDS011;9229;52.354;20.886;2023-04-03T13:48:14;9.23;;;1.85;;
18206;SDS011;9229;52.354;20.886;2023-04-03T13:53:20;2.00;;;1.83;;
18206;SDS011;9229;52.354;20.886;2023-04-03T13:58:23;6.78;;;1.60;;
18206;SDS011;9229;52.354;20.886;2023-04-03T14:03:33;1.40;;;1.40;;
18206;SDS011;9229;52.354;20.886;2023-04-03T14:08:45;1.52;;;1.40;;
18206;SDS011;9229;52.354;20.886;2023-04-03T14:13:50;6.25;;;1.75;;
18206;SDS011;9229;52.354;20.886;2023-04-03T14:18:54;2.95;;;1.95;;
18206;SDS011;9229;52.354;20.886;2023-04-03T14:23:58;2.00;;;1.90;;
18206;SDS011;9229;52.354;20.886;2023-04-03T14:29:00;7.93;;;1.98;;
18206;SDS011;9229;52.354;20.886;2023-04-03T14:34:04;1.80;;;1.75;;
18206;SDS011;9229;52.354;20.886;2023-04-03T14:39:10;1.80;;;1.70;;
18206;SDS011;9229;52.354;20.886;2023-04-03T14:44:20;1.50;;;1.50;;
18206;SDS011;9229;52.354;20.886;2023-04-03T14:49:24;5.18;;;1.58;;
18206;SDS011;9229;52.354;20.886;2023-04-03T14:54:30;5.82;;;2.05;;
18206;SDS011;9229;52.354;20.886;2023-04-03T14:59:33;6.68;;;1.60;;
18206;SDS011;9229;52.354;20.886;2023-04-03T15:04:36;2.28;;;1.80;;
18206;SDS011;9229;52.354;20.886;2023-04-03T15:09:40;7.18;;;1.83;;
18206;SDS011;9229;52.354;20.886;2023-04-03T15:14:42;6.63;;;2.03;;
18206;SDS011;9229;52.354;20.886;2023-04-03T15:19:44;1.67;;;1.58;;
18206;SDS011;9229;52.354;20.886;2023-04-03T15:24:47;13.05;;;2.33;;
18206;SDS011;9229;52.354;20.886;2023-04-03T15:29:50;2.75;;;1.90;;
18206;SDS011;9229;52.354;20.886;2023-04-03T15:34:53;2.20;;;1.90;;
18206;SDS011;9229;52.354;20.886;2023-04-03T15:40:01;6.00;;;2.45;;
18206;SDS011;9229;52.354;20.886;2023-04-03T15:45:04;1.88;;;1.70;;
18206;SDS011;9229;52.354;20.886;2023-04-03T15:50:23;2.00;;;1.90;;
18206;SDS011;9229;52.354;20.886;2023-04-03T15:55:29;8.82;;;1.98;;
18206;SDS011;9229;52.354;20.886;2023-04-03T16:00:32;2.28;;;2.17;;
18206;SDS011;9229;52.354;20.886;2023-04-03T16:05:34;3.58;;;2.25;;
18206;SDS011;9229;52.354;20.886;2023-04-03T16:10:39;6.22;;;2.35;;
18206;SDS011;9229;52.354;20.886;2023-04-03T16:15:42;8.88;;;2.22;;
18206;SDS011;9229;52.354;20.886;2023-04-03T16:20:48;4.32;;;2.40;;
18206;SDS011;9229;52.354;20.886;2023-04-03T16:26:00;2.50;;;2.17;;
18206;SDS011;9229;52.354;20.886;2023-04-03T16:31:02;4.20;;;2.33;;
18206;SDS011;9229;52.354;20.886;2023-04-03T16:36:06;2.28;;;2.13;;
18206;SDS011;9229;52.354;20.886;2023-04-03T16:41:10;10.43;;;2.50;;
18206;SDS011;9229;52.354;20.886;2023-04-03T16:46:12;3.75;;;2.38;;
18206;SDS011;9229;52.354;20.886;2023-04-03T16:51:14;4.88;;;2.47;;
18206;SDS011;9229;52.354;20.886;2023-04-03T16:56:17;2.30;;;2.10;;
18206;SDS011;9229;52.354;20.886;2023-04-03T17:01:21;6.45;;;2.67;;
18206;SDS011;9229;52.354;20.886;2023-04-03T17:06:24;2.00;;;1.90;;
18206;SDS011;9229;52.354;20.886;2023-04-03T17:11:28;3.53;;;2.15;;
18206;SDS011;9229;52.354;20.886;2023-04-03T17:16:33;2.00;;;2.00;;
18206;SDS011;9229;52.354;20.886;2023-04-03T17:21:43;2.83;;;2.60;;
18206;SDS011;9229;52.354;20.886;2023-04-03T17:27:05;2.72;;;2.50;;
18206;SDS011;9229;52.354;20.886;2023-04-03T17:32:12;5.28;;;2.58;;
18206;SDS011;9229;52.354;20.886;2023-04-03T17:37:17;5.30;;;2.78;;
18206;SDS011;9229;52.354;20.886;2023-04-03T17:42:20;3.00;;;2.67;;
18206;SDS011;9229;52.354;20.886;2023-04-03T17:47:22;4.78;;;3.28;;
18206;SDS011;9229;52.354;20.886;2023-04-03T17:52:25;3.28;;;3.05;;
18206;SDS011;9229;52.354;20.886;2023-04-03T18:02:35;4.60;;;2.90;;
18206;SDS011;9229;52.354;20.886;2023-04-03T18:07:38;3.70;;;3.17;;
18206;SDS011;9229;52.354;20.886;2023-04-03T18:12:43;2.88;;;2.78;;
18206;SDS011;9229;52.354;20.886;2023-04-03T18:17:45;12.50;;;3.13;;
18206;SDS011;9229;52.354;20.886;2023-04-03T18:22:57;4.05;;;3.67;;
18206;SDS011;9229;52.354;20.886;2023-04-03T18:28:06;11.15;;;4.10;;
18206;SDS011;9229;52.354;20.886;2023-04-03T18:33:10;4.72;;;3.88;;
18206;SDS011;9229;52.354;20.886;2023-04-03T18:38:16;5.18;;;3.50;;
18206;SDS011;9229;52.354;20.886;2023-04-03T18:43:19;5.55;;;4.57;;
18206;SDS011;9229;52.354;20.886;2023-04-03T18:48:21;7.75;;;4.63;;
18206;SDS011;9229;52.354;20.886;2023-04-03T18:53:23;5.93;;;4.05;;
18206;SDS011;9229;52.354;20.886;2023-04-03T18:58:30;4.55;;;4.13;;
18206;SDS011;9229;52.354;20.886;2023-04-03T19:03:32;8.73;;;4.95;;
18206;SDS011;9229;52.354;20.886;2023-04-03T19:08:40;7.53;;;4.80;;
18206;SDS011;9229;52.354;20.886;2023-04-03T19:13:43;4.75;;;4.18;;
18206;SDS011;9229;52.354;20.886;2023-04-03T19:18:46;7.55;;;4.03;;
18206;SDS011;9229;52.354;20.886;2023-04-03T19:23:53;7.65;;;4.10;;
18206;SDS011;9229;52.354;20.886;2023-04-03T19:29:07;4.68;;;4.13;;
18206;SDS011;9229;52.354;20.886;2023-04-03T19:34:18;4.90;;;4.47;;
18206;SDS011;9229;52.354;20.886;2023-04-03T19:39:22;3.75;;;3.53;;
18206;SDS011;9229;52.354;20.886;2023-04-03T19:44:49;5.28;;;4.10;;
18206;SDS011;9229;52.354;20.886;2023-04-03T19:49:54;10.82;;;4.60;;
18206;SDS011;9229;52.354;20.886;2023-04-03T19:55:06;5.53;;;4.43;;
18206;SDS011;9229;52.354;20.886;2023-04-03T20:00:15;5.60;;;4.05;;
18206;SDS011;9229;52.354;20.886;2023-04-03T20:05:34;4.03;;;3.63;;
18206;SDS011;9229;52.354;20.886;2023-04-03T20:10:43;7.75;;;4.13;;
18206;SDS011;9229;52.354;20.886;2023-04-03T20:15:49;4.45;;;3.83;;
18206;SDS011;9229;52.354;20.886;2023-04-03T20:20:58;4.07;;;3.78;;
18206;SDS011;9229;52.354;20.886;2023-04-03T20:26:03;4.10;;;3.80;;
18206;SDS011;9229;52.354;20.886;2023-04-03T20:31:15;3.67;;;3.35;;
18206;SDS011;9229;52.354;20.886;2023-04-03T20:36:26;3.60;;;3.25;;
18206;SDS011;9229;52.354;20.886;2023-04-03T20:41:31;4.15;;;3.22;;
18206;SDS011;9229;52.354;20.886;2023-04-03T20:46:40;9.77;;;3.47;;
18206;SDS011;9229;52.354;20.886;2023-04-03T20:51:53;8.98;;;3.35;;
18206;SDS011;9229;52.354;20.886;2023-04-03T20:57:01;4.95;;;3.75;;
18206;SDS011;9229;52.354;20.886;2023-04-03T21:02:09;3.83;;;3.45;;
18206;SDS011;9229;52.354;20.886;2023-04-03T21:23:59;9.02;;;3.35;;
18206;SDS011;9229;52.354;20.886;2023-04-03T21:29:06;3.42;;;3.10;;
18206;SDS011;9229;52.354;20.886;2023-04-03T21:34:09;3.97;;;3.15;;
18206;SDS011;9229;52.354;20.886;2023-04-03T21:39:13;3.38;;;3.08;;
18206;SDS011;9229;52.354;20.886;2023-04-03T21:44:15;4.63;;;3.45;;
18206;SDS011;9229;52.354;20.886;2023-04-03T21:49:19;4.03;;;3.47;;
18206;SDS011;9229;52.354;20.886;2023-04-03T21:54:23;2.67;;;2.45;;
18206;SDS011;9229;52.354;20.886;2023-04-03T21:59:26;3.40;;;3.10;;
18206;SDS011;9229;52.354;20.886;2023-04-03T22:04:30;5.43;;;3.80;;
18206;SDS011;9229;52.354;20.886;2023-04-03T22:09:32;2.97;;;2.78;;
18206;SDS011;9229;52.354;20.886;2023-04-03T22:14:34;5.47;;;3.05;;
18206;SDS011;9229;52.354;20.886;2023-04-03T22:19:42;3.85;;;3.38;;
18206;SDS011;9229;52.354;20.886;2023-04-03T22:24:59;3.72;;;2.63;;
18206;SDS011;9229;52.354;20.886;2023-04-03T22:30:08;3.80;;;2.78;;
18206;SDS011;9229;52.354;20.886;2023-04-03T22:35:27;3.30;;;2.90;;
18206;SDS011;9229;52.354;20.886;2023-04-03T22:40:29;2.38;;;2.28;;
18206;SDS011;9229;52.354;20.886;2023-04-03T22:45:32;4.10;;;2.90;;
18206;SDS011;9229;52.354;20.886;2023-04-03T22:50:36;2.90;;;2.70;;
18206;SDS011;9229;52.354;20.886;2023-04-03T22:55:38;4.68;;;3.30;;
18206;SDS011;9229;52.354;20.886;2023-04-03T23:00:40;3.50;;;2.67;;
18206;SDS011;9229;52.354;20.886;2023-04-03T23:05:44;10.48;;;3.15;;
18206;SDS011;9229;52.354;20.886;2023-04-03T23:10:46;2.50;;;2.40;;
18206;SDS011;9229;52.354;20.886;2023-04-03T23:15:51;5.13;;;3.08;;
18206;SDS011;9229;52.354;20.886;2023-04-03T23:20:57;8.68;;;2.80;;
18206;SDS011;9229;52.354;20.886;2023-04-03T23:26:00;2.95;;;2.85;;
18206;SDS011;9229;52.354;20.886;2023-04-03T23:31:03;5.95;;;2.72;;
18206;SDS011;9229;52.354;20.886;2023-04-03T23:36:07;7.43;;;2.88;;
18206;SDS011;9229;52.354;20.886;2023-04-03T23:41:15;4.35;;;3.10;;
18206;SDS011;9229;52.354;20.886;2023-04-03T23:46:17;4.22;;;2.72;;
18206;SDS011;9229;52.354;20.886;2023-04-03T23:51:20;2.97;;;2.78;;
18206;SDS011;9229;52.354;20.886;2023-04-03T23:56:22;5.60;;;2.75;;
